sensor_id;sensor_type;location;lat;lon;timestamp;temperature;humidity
25582;DHT22;13462;50.764;4.332;2023-05-13T00:02:17;13.00;99.90
25582;DHT22;13462;50.764;4.332;2023-05-13T00:04:44;13.00;99.90
25582;DHT22;13462;50.764;4.332;2023-05-13T00:07:09;13.00;99.90
25582;DHT22;13462;50.764;4.332;2023-05-13T00:09:35;12.90;99.90
25582;DHT22;13462;50.764;4.332;2023-05-13T00:12:00;12.80;99.90
25582;DHT22;13462;50.764;4.332;2023-05-13T00:14:27;12.70;99.90
25582;DHT22;13462;50.764;4.332;2023-05-13T00:16:53;12.70;99.90
25582;DHT22;13462;50.764;4.332;2023-05-13T00:19:18;12.60;99.90
25582;DHT22;13462;50.764;4.332;2023-05-13T00:21:44;12.50;99.90
25582;DHT22;13462;50.764;4.332;2023-05-13T00:24:09;12.50;99.90
25582;DHT22;13462;50.764;4.332;2023-05-13T00:26:35;12.50;99.90
25582;DHT22;13462;50.764;4.332;2023-05-13T00:29:01;12.40;99.90
25582;DHT22;13462;50.764;4.332;2023-05-13T00:31:26;12.30;99.90
25582;DHT22;13462;50.764;4.332;2023-05-13T00:33:51;12.30;99.90
25582;DHT22;13462;50.764;4.332;2023-05-13T00:36:17;12.20;99.90
25582;DHT22;13462;50.764;4.332;2023-05-13T00:38:42;12.20;99.90
25582;DHT22;13462;50.764;4.332;2023-05-13T00:41:08;12.10;99.90
25582;DHT22;13462;50.764;4.332;2023-05-13T00:43:34;12.10;99.90
25582;DHT22;13462;50.764;4.332;2023-05-13T00:45:59;12.10;99.90
25582;DHT22;13462;50.764;4.332;2023-05-13T00:48:25;12.00;99.90
25582;DHT22;13462;50.764;4.332;2023-05-13T00:50:50;12.10;99.90
25582;DHT22;13462;50.764;4.332;2023-05-13T00:53:16;12.10;99.90
25582;DHT22;13462;50.764;4.332;2023-05-13T00:55:42;12.00;99.90
25582;DHT22;13462;50.764;4.332;2023-05-13T00:58:08;12.00;99.90
25582;DHT22;13462;50.764;4.332;2023-05-13T01:00:34;12.00;99.90
25582;DHT22;13462;50.764;4.332;2023-05-13T01:03:04;12.00;99.90
25582;DHT22;13462;50.764;4.332;2023-05-13T01:05:54;12.00;99.90
25582;DHT22;13462;50.764;4.332;2023-05-13T01:08:20;11.90;99.90
25582;DHT22;13462;50.764;4.332;2023-05-13T01:10:49;11.90;99.90
25582;DHT22;13462;50.764;4.332;2023-05-13T01:13:19;11.90;99.90
25582;DHT22;13462;50.764;4.332;2023-05-13T01:15:56;11.90;99.90
25582;DHT22;13462;50.764;4.332;2023-05-13T01:18:34;11.90;99.90
25582;DHT22;13462;50.764;4.332;2023-05-13T01:21:01;11.90;99.90
25582;DHT22;13462;50.764;4.332;2023-05-13T01:23:27;11.90;99.90
25582;DHT22;13462;50.764;4.332;2023-05-13T01:25:53;12.00;99.90
25582;DHT22;13462;50.764;4.332;2023-05-13T01:28:18;12.00;99.90
25582;DHT22;13462;50.764;4.332;2023-05-13T01:30:46;12.00;99.90
25582;DHT22;13462;50.764;4.332;2023-05-13T01:33:12;11.90;99.90
25582;DHT22;13462;50.764;4.332;2023-05-13T01:35:38;11.90;99.90
25582;DHT22;13462;50.764;4.332;2023-05-13T01:38:04;11.90;99.90
25582;DHT22;13462;50.764;4.332;2023-05-13T01:40:30;12.00;99.90
25582;DHT22;13462;50.764;4.332;2023-05-13T01:42:56;11.90;99.90
25582;DHT22;13462;50.764;4.332;2023-05-13T01:45:22;12.00;99.90
25582;DHT22;13462;50.764;4.332;2023-05-13T01:47:47;12.00;99.90
25582;DHT22;13462;50.764;4.332;2023-05-13T01:50:13;11.90;99.90
25582;DHT22;13462;50.764;4.332;2023-05-13T01:52:38;12.00;99.90
25582;DHT22;13462;50.764;4.332;2023-05-13T01:55:04;12.00;99.90
25582;DHT22;13462;50.764;4.332;2023-05-13T01:57:30;12.00;99.90
25582;DHT22;13462;50.764;4.332;2023-05-13T01:59:55;12.00;99.90
25582;DHT22;13462;50.764;4.332;2023-05-13T02:02:21;12.00;99.90
25582;DHT22;13462;50.764;4.332;2023-05-13T02:04:46;12.00;99.90
25582;DHT22;13462;50.764;4.332;2023-05-13T02:07:11;12.00;99.90
25582;DHT22;13462;50.764;4.332;2023-05-13T02:09:37;12.00;99.90
25582;DHT22;13462;50.764;4.332;2023-05-13T02:12:02;12.00;99.90
25582;DHT22;13462;50.764;4.332;2023-05-13T02:14:28;12.10;99.90
25582;DHT22;13462;50.764;4.332;2023-05-13T02:16:54;12.10;99.90
25582;DHT22;13462;50.764;4.332;2023-05-13T02:19:19;12.10;99.90
25582;DHT22;13462;50.764;4.332;2023-05-13T02:21:45;12.10;99.90
25582;DHT22;13462;50.764;4.332;2023-05-13T02:24:10;12.20;99.90
25582;DHT22;13462;50.764;4.332;2023-05-13T02:26:38;12.20;99.90
25582;DHT22;13462;50.764;4.332;2023-05-13T02:29:05;12.20;99.90
25582;DHT22;13462;50.764;4.332;2023-05-13T02:31:31;12.10;99.90
25582;DHT22;13462;50.764;4.332;2023-05-13T02:33:56;12.10;99.90
25582;DHT22;13462;50.764;4.332;2023-05-13T02:36:22;12.10;99.90
25582;DHT22;13462;50.764;4.332;2023-05-13T02:38:47;12.10;99.90
25582;DHT22;13462;50.764;4.332;2023-05-13T02:41:13;12.10;99.90
25582;DHT22;13462;50.764;4.332;2023-05-13T02:43:38;12.10;99.90
25582;DHT22;13462;50.764;4.332;2023-05-13T02:46:04;12.10;99.90
25582;DHT22;13462;50.764;4.332;2023-05-13T02:48:30;12.00;99.90
25582;DHT22;13462;50.764;4.332;2023-05-13T02:50:55;12.00;99.90
25582;DHT22;13462;50.764;4.332;2023-05-13T02:53:21;11.90;99.90
25582;DHT22;13462;50.764;4.332;2023-05-13T02:55:47;11.90;99.90
25582;DHT22;13462;50.764;4.332;2023-05-13T02:58:12;11.80;99.90
25582;DHT22;13462;50.764;4.332;2023-05-13T03:00:38;11.80;99.90
25582;DHT22;13462;50.764;4.332;2023-05-13T03:03:03;11.80;99.90
25582;DHT22;13462;50.764;4.332;2023-05-13T03:05:29;11.70;99.90
25582;DHT22;13462;50.764;4.332;2023-05-13T03:07:54;11.70;99.90
25582;DHT22;13462;50.764;4.332;2023-05-13T03:10:22;11.60;99.90
25582;DHT22;13462;50.764;4.332;2023-05-13T03:12:47;11.60;99.90
25582;DHT22;13462;50.764;4.332;2023-05-13T03:15:13;11.60;99.90
25582;DHT22;13462;50.764;4.332;2023-05-13T03:17:38;11.60;99.90
25582;DHT22;13462;50.764;4.332;2023-05-13T03:20:04;11.60;99.90
25582;DHT22;13462;50.764;4.332;2023-05-13T03:22:30;11.60;99.90
25582;DHT22;13462;50.764;4.332;2023-05-13T03:24:55;11.60;99.90
25582;DHT22;13462;50.764;4.332;2023-05-13T03:27:22;11.60;99.90
25582;DHT22;13462;50.764;4.332;2023-05-13T03:29:48;11.60;99.90
25582;DHT22;13462;50.764;4.332;2023-05-13T03:32:13;11.70;99.90
25582;DHT22;13462;50.764;4.332;2023-05-13T03:34:38;11.70;99.90
25582;DHT22;13462;50.764;4.332;2023-05-13T03:37:04;11.70;99.90
25582;DHT22;13462;50.764;4.332;2023-05-13T03:39:30;11.70;99.90
25582;DHT22;13462;50.764;4.332;2023-05-13T03:41:55;11.80;99.90
25582;DHT22;13462;50.764;4.332;2023-05-13T03:44:21;11.80;99.90
25582;DHT22;13462;50.764;4.332;2023-05-13T03:46:46;11.80;99.90
25582;DHT22;13462;50.764;4.332;2023-05-13T03:49:12;11.80;99.90
25582;DHT22;13462;50.764;4.332;2023-05-13T03:51:37;11.80;99.90
25582;DHT22;13462;50.764;4.332;2023-05-13T03:54:03;11.80;99.90
25582;DHT22;13462;50.764;4.332;2023-05-13T03:56:28;11.80;99.90
25582;DHT22;13462;50.764;4.332;2023-05-13T03:58:54;11.70;99.90
25582;DHT22;13462;50.764;4.332;2023-05-13T04:01:20;11.80;99.90
25582;DHT22;13462;50.764;4.332;2023-05-13T04:03:46;11.70;99.90
25582;DHT22;13462;50.764;4.332;2023-05-13T04:06:11;11.70;99.90
25582;DHT22;13462;50.764;4.332;2023-05-13T04:08:38;11.60;99.90
25582;DHT22;13462;50.764;4.332;2023-05-13T04:11:04;11.60;99.90
25582;DHT22;13462;50.764;4.332;2023-05-13T04:13:31;11.60;99.90
25582;DHT22;13462;50.764;4.332;2023-05-13T04:15:56;11.60;99.90
25582;DHT22;13462;50.764;4.332;2023-05-13T04:18:22;11.60;99.90
25582;DHT22;13462;50.764;4.332;2023-05-13T04:20:47;11.60;99.90
25582;DHT22;13462;50.764;4.332;2023-05-13T04:23:13;11.50;99.90
25582;DHT22;13462;50.764;4.332;2023-05-13T04:25:39;11.50;99.90
25582;DHT22;13462;50.764;4.332;2023-05-13T04:28:05;11.50;99.90
25582;DHT22;13462;50.764;4.332;2023-05-13T04:30:31;11.50;99.90
25582;DHT22;13462;50.764;4.332;2023-05-13T04:32:56;11.60;99.90
25582;DHT22;13462;50.764;4.332;2023-05-13T04:35:22;11.60;99.90
25582;DHT22;13462;50.764;4.332;2023-05-13T04:37:47;11.70;99.90
25582;DHT22;13462;50.764;4.332;2023-05-13T04:40:14;11.70;99.90
25582;DHT22;13462;50.764;4.332;2023-05-13T04:42:39;11.70;99.90
25582;DHT22;13462;50.764;4.332;2023-05-13T04:45:05;11.80;99.90
25582;DHT22;13462;50.764;4.332;2023-05-13T04:47:30;11.90;99.90
25582;DHT22;13462;50.764;4.332;2023-05-13T04:49:59;11.90;99.90
25582;DHT22;13462;50.764;4.332;2023-05-13T04:52:25;12.00;99.90
25582;DHT22;13462;50.764;4.332;2023-05-13T04:54:50;12.10;99.90
25582;DHT22;13462;50.764;4.332;2023-05-13T04:57:16;12.20;99.90
25582;DHT22;13462;50.764;4.332;2023-05-13T04:59:41;12.30;99.90
25582;DHT22;13462;50.764;4.332;2023-05-13T05:02:07;12.40;99.90
25582;DHT22;13462;50.764;4.332;2023-05-13T05:04:32;12.60;99.90
25582;DHT22;13462;50.764;4.332;2023-05-13T05:06:58;12.60;99.90
25582;DHT22;13462;50.764;4.332;2023-05-13T05:09:23;12.70;99.90
25582;DHT22;13462;50.764;4.332;2023-05-13T05:11:49;12.80;99.90
25582;DHT22;13462;50.764;4.332;2023-05-13T05:14:15;12.90;99.90
25582;DHT22;13462;50.764;4.332;2023-05-13T05:16:40;13.10;99.90
25582;DHT22;13462;50.764;4.332;2023-05-13T05:19:06;13.10;99.90
25582;DHT22;13462;50.764;4.332;2023-05-13T05:21:31;13.20;99.90
25582;DHT22;13462;50.764;4.332;2023-05-13T05:23:57;13.20;99.90
25582;DHT22;13462;50.764;4.332;2023-05-13T05:26:24;13.30;99.90
25582;DHT22;13462;50.764;4.332;2023-05-13T05:28:49;13.40;99.90
25582;DHT22;13462;50.764;4.332;2023-05-13T05:31:15;13.50;99.90
25582;DHT22;13462;50.764;4.332;2023-05-13T05:33:40;13.50;99.90
25582;DHT22;13462;50.764;4.332;2023-05-13T05:36:06;13.60;99.90
25582;DHT22;13462;50.764;4.332;2023-05-13T05:38:32;13.60;99.90
25582;DHT22;13462;50.764;4.332;2023-05-13T05:40:57;13.70;99.90
25582;DHT22;13462;50.764;4.332;2023-05-13T05:43:23;13.80;99.90
25582;DHT22;13462;50.764;4.332;2023-05-13T05:45:48;13.90;99.90
25582;DHT22;13462;50.764;4.332;2023-05-13T05:48:14;13.90;99.90
25582;DHT22;13462;50.764;4.332;2023-05-13T05:50:40;14.20;99.90
25582;DHT22;13462;50.764;4.332;2023-05-13T05:53:05;14.80;99.90
25582;DHT22;13462;50.764;4.332;2023-05-13T05:55:31;15.60;99.90
25582;DHT22;13462;50.764;4.332;2023-05-13T05:57:57;16.20;99.90
25582;DHT22;13462;50.764;4.332;2023-05-13T06:00:28;16.40;99.90
25582;DHT22;13462;50.764;4.332;2023-05-13T06:02:54;16.40;99.90
25582;DHT22;13462;50.764;4.332;2023-05-13T06:05:21;16.30;99.90
25582;DHT22;13462;50.764;4.332;2023-05-13T06:07:47;16.40;99.90
25582;DHT22;13462;50.764;4.332;2023-05-13T06:10:12;16.70;99.90
25582;DHT22;13462;50.764;4.332;2023-05-13T06:12:38;17.90;99.90
25582;DHT22;13462;50.764;4.332;2023-05-13T06:15:05;19.30;99.90
25582;DHT22;13462;50.764;4.332;2023-05-13T06:17:35;20.20;99.90
25582;DHT22;13462;50.764;4.332;2023-05-13T06:20:00;20.10;99.90
25582;DHT22;13462;50.764;4.332;2023-05-13T06:22:26;19.80;99.90
25582;DHT22;13462;50.764;4.332;2023-05-13T06:24:51;19.40;99.90
25582;DHT22;13462;50.764;4.332;2023-05-13T06:27:17;19.10;99.90
25582;DHT22;13462;50.764;4.332;2023-05-13T06:29:42;19.10;99.90
25582;DHT22;13462;50.764;4.332;2023-05-13T06:32:08;19.90;99.90
25582;DHT22;13462;50.764;4.332;2023-05-13T06:34:33;20.90;99.90
25582;DHT22;13462;50.764;4.332;2023-05-13T06:36:59;21.60;99.90
25582;DHT22;13462;50.764;4.332;2023-05-13T06:39:24;22.30;99.90
25582;DHT22;13462;50.764;4.332;2023-05-13T06:41:50;22.90;99.90
25582;DHT22;13462;50.764;4.332;2023-05-13T06:44:15;22.60;99.80
25582;DHT22;13462;50.764;4.332;2023-05-13T06:46:41;22.70;98.90
25582;DHT22;13462;50.764;4.332;2023-05-13T06:49:06;22.80;99.00
25582;DHT22;13462;50.764;4.332;2023-05-13T06:51:32;23.20;98.60
25582;DHT22;13462;50.764;4.332;2023-05-13T06:53:59;23.10;98.70
25582;DHT22;13462;50.764;4.332;2023-05-13T06:56:24;22.90;98.30
25582;DHT22;13462;50.764;4.332;2023-05-13T06:58:50;22.80;99.50
25582;DHT22;13462;50.764;4.332;2023-05-13T07:01:16;22.40;98.60
25582;DHT22;13462;50.764;4.332;2023-05-13T07:03:42;21.40;98.70
25582;DHT22;13462;50.764;4.332;2023-05-13T07:06:07;20.40;99.90
25582;DHT22;13462;50.764;4.332;2023-05-13T07:08:33;20.00;99.90
25582;DHT22;13462;50.764;4.332;2023-05-13T07:10:58;19.90;99.90
25582;DHT22;13462;50.764;4.332;2023-05-13T07:13:24;20.20;99.90
25582;DHT22;13462;50.764;4.332;2023-05-13T07:15:49;20.50;99.90
25582;DHT22;13462;50.764;4.332;2023-05-13T07:18:15;20.40;99.90
25582;DHT22;13462;50.764;4.332;2023-05-13T07:20:40;20.30;99.90
25582;DHT22;13462;50.764;4.332;2023-05-13T07:23:06;20.30;99.90
25582;DHT22;13462;50.764;4.332;2023-05-13T07:25:31;20.20;99.90
25582;DHT22;13462;50.764;4.332;2023-05-13T07:27:57;20.10;99.90
25582;DHT22;13462;50.764;4.332;2023-05-13T07:30:22;20.00;99.90
25582;DHT22;13462;50.764;4.332;2023-05-13T07:32:48;20.20;99.90
25582;DHT22;13462;50.764;4.332;2023-05-13T07:35:14;20.70;99.90
25582;DHT22;13462;50.764;4.332;2023-05-13T07:37:41;22.20;99.90
25582;DHT22;13462;50.764;4.332;2023-05-13T07:40:06;23.90;98.00
25582;DHT22;13462;50.764;4.332;2023-05-13T07:42:32;25.40;95.50
25582;DHT22;13462;50.764;4.332;2023-05-13T07:44:58;26.70;93.50
25582;DHT22;13462;50.764;4.332;2023-05-13T07:47:23;28.50;91.00
25582;DHT22;13462;50.764;4.332;2023-05-13T07:49:49;29.10;86.10
25582;DHT22;13462;50.764;4.332;2023-05-13T07:52:14;29.60;85.20
25582;DHT22;13462;50.764;4.332;2023-05-13T07:54:40;30.70;81.10
25582;DHT22;13462;50.764;4.332;2023-05-13T07:57:06;31.70;78.90
25582;DHT22;13462;50.764;4.332;2023-05-13T07:59:31;32.00;74.00
25582;DHT22;13462;50.764;4.332;2023-05-13T08:01:57;32.10;70.30
25582;DHT22;13462;50.764;4.332;2023-05-13T08:04:22;31.80;69.60
25582;DHT22;13462;50.764;4.332;2023-05-13T08:06:48;32.10;69.30
25582;DHT22;13462;50.764;4.332;2023-05-13T08:09:13;32.60;68.50
25582;DHT22;13462;50.764;4.332;2023-05-13T08:11:39;33.30;64.70
25582;DHT22;13462;50.764;4.332;2023-05-13T08:14:04;33.20;65.40
25582;DHT22;13462;50.764;4.332;2023-05-13T08:16:30;33.70;66.30
25582;DHT22;13462;50.764;4.332;2023-05-13T08:18:56;33.80;65.30
25582;DHT22;13462;50.764;4.332;2023-05-13T08:21:21;34.10;62.50
25582;DHT22;13462;50.764;4.332;2023-05-13T08:23:48;34.20;63.50
25582;DHT22;13462;50.764;4.332;2023-05-13T08:26:14;34.30;60.50
25582;DHT22;13462;50.764;4.332;2023-05-13T08:28:39;33.80;60.00
25582;DHT22;13462;50.764;4.332;2023-05-13T08:31:05;33.30;59.30
25582;DHT22;13462;50.764;4.332;2023-05-13T08:33:31;33.80;61.90
25582;DHT22;13462;50.764;4.332;2023-05-13T08:35:57;34.20;58.50
25582;DHT22;13462;50.764;4.332;2023-05-13T08:38:23;34.00;57.50
25582;DHT22;13462;50.764;4.332;2023-05-13T08:40:49;33.30;57.80
25582;DHT22;13462;50.764;4.332;2023-05-13T08:43:14;33.20;58.40
25582;DHT22;13462;50.764;4.332;2023-05-13T08:45:40;33.60;59.10
25582;DHT22;13462;50.764;4.332;2023-05-13T08:48:06;33.50;57.60
25582;DHT22;13462;50.764;4.332;2023-05-13T08:50:33;33.10;59.30
25582;DHT22;13462;50.764;4.332;2023-05-13T08:52:59;33.80;60.80
25582;DHT22;13462;50.764;4.332;2023-05-13T08:55:24;34.70;59.60
25582;DHT22;13462;50.764;4.332;2023-05-13T08:57:50;35.00;56.10
25582;DHT22;13462;50.764;4.332;2023-05-13T09:00:16;35.20;57.00
25582;DHT22;13462;50.764;4.332;2023-05-13T09:02:41;35.70;57.10
25582;DHT22;13462;50.764;4.332;2023-05-13T09:05:07;35.70;56.10
25582;DHT22;13462;50.764;4.332;2023-05-13T09:07:33;36.20;55.90
25582;DHT22;13462;50.764;4.332;2023-05-13T09:09:59;35.70;57.30
25582;DHT22;13462;50.764;4.332;2023-05-13T09:15:10;36.80;56.00
25582;DHT22;13462;50.764;4.332;2023-05-13T09:17:36;37.50;53.30
25582;DHT22;13462;50.764;4.332;2023-05-13T09:20:06;36.00;56.20
25582;DHT22;13462;50.764;4.332;2023-05-13T09:22:31;36.50;53.70
25582;DHT22;13462;50.764;4.332;2023-05-13T09:24:57;35.90;53.60
25582;DHT22;13462;50.764;4.332;2023-05-13T09:27:30;36.00;55.80
25582;DHT22;13462;50.764;4.332;2023-05-13T09:30:00;36.00;55.00
25582;DHT22;13462;50.764;4.332;2023-05-13T09:32:25;36.30;55.50
25582;DHT22;13462;50.764;4.332;2023-05-13T09:34:51;35.60;55.00
25582;DHT22;13462;50.764;4.332;2023-05-13T09:37:17;35.50;55.00
25582;DHT22;13462;50.764;4.332;2023-05-13T09:39:45;35.50;53.30
25582;DHT22;13462;50.764;4.332;2023-05-13T09:42:17;35.70;53.40
25582;DHT22;13462;50.764;4.332;2023-05-13T09:44:45;35.80;53.40
25582;DHT22;13462;50.764;4.332;2023-05-13T09:47:14;35.70;54.20
25582;DHT22;13462;50.764;4.332;2023-05-13T09:49:41;35.50;52.30
25582;DHT22;13462;50.764;4.332;2023-05-13T09:52:09;35.30;54.60
25582;DHT22;13462;50.764;4.332;2023-05-13T09:54:36;35.70;55.80
25582;DHT22;13462;50.764;4.332;2023-05-13T09:57:02;35.50;54.60
25582;DHT22;13462;50.764;4.332;2023-05-13T09:59:30;35.50;53.40
25582;DHT22;13462;50.764;4.332;2023-05-13T10:01:56;35.30;53.90
25582;DHT22;13462;50.764;4.332;2023-05-13T10:04:24;35.10;55.50
25582;DHT22;13462;50.764;4.332;2023-05-13T10:06:50;35.30;57.10
25582;DHT22;13462;50.764;4.332;2023-05-13T10:09:15;36.00;53.90
25582;DHT22;13462;50.764;4.332;2023-05-13T10:11:42;36.10;51.20
25582;DHT22;13462;50.764;4.332;2023-05-13T10:14:11;35.60;55.70
25582;DHT22;13462;50.764;4.332;2023-05-13T10:16:37;35.70;53.00
25582;DHT22;13462;50.764;4.332;2023-05-13T10:19:04;35.00;55.90
25582;DHT22;13462;50.764;4.332;2023-05-13T10:21:30;35.40;54.00
25582;DHT22;13462;50.764;4.332;2023-05-13T10:23:55;35.20;53.20
25582;DHT22;13462;50.764;4.332;2023-05-13T10:26:22;35.60;56.10
25582;DHT22;13462;50.764;4.332;2023-05-13T10:28:48;35.80;56.70
25582;DHT22;13462;50.764;4.332;2023-05-13T10:31:14;35.30;54.00
25582;DHT22;13462;50.764;4.332;2023-05-13T10:33:39;35.80;52.90
25582;DHT22;13462;50.764;4.332;2023-05-13T10:43:47;35.00;54.40
25582;DHT22;13462;50.764;4.332;2023-05-13T10:46:20;35.00;52.90
25582;DHT22;13462;50.764;4.332;2023-05-13T10:48:48;35.30;53.90
25582;DHT22;13462;50.764;4.332;2023-05-13T10:51:14;35.20;53.50
25582;DHT22;13462;50.764;4.332;2023-05-13T10:53:47;35.30;55.30
25582;DHT22;13462;50.764;4.332;2023-05-13T10:56:13;35.60;52.60
25582;DHT22;13462;50.764;4.332;2023-05-13T10:58:39;35.90;53.40
25582;DHT22;13462;50.764;4.332;2023-05-13T11:04:10;35.80;51.50
25582;DHT22;13462;50.764;4.332;2023-05-13T11:06:37;35.40;51.40
25582;DHT22;13462;50.764;4.332;2023-05-13T11:09:07;35.20;52.50
25582;DHT22;13462;50.764;4.332;2023-05-13T11:11:36;35.50;54.20
25582;DHT22;13462;50.764;4.332;2023-05-13T11:14:06;35.60;54.10
25582;DHT22;13462;50.764;4.332;2023-05-13T11:16:33;35.80;54.70
25582;DHT22;13462;50.764;4.332;2023-05-13T11:18:59;36.20;53.30
25582;DHT22;13462;50.764;4.332;2023-05-13T11:21:29;36.00;55.80
25582;DHT22;13462;50.764;4.332;2023-05-13T11:23:56;35.90;54.90
25582;DHT22;13462;50.764;4.332;2023-05-13T11:26:22;35.90;53.80
25582;DHT22;13462;50.764;4.332;2023-05-13T11:28:54;36.40;53.10
25582;DHT22;13462;50.764;4.332;2023-05-13T11:31:19;36.90;50.30
25582;DHT22;13462;50.764;4.332;2023-05-13T11:36:29;36.00;55.10
25582;DHT22;13462;50.764;4.332;2023-05-13T11:39:03;34.60;54.70
25582;DHT22;13462;50.764;4.332;2023-05-13T11:41:32;34.00;55.40
25582;DHT22;13462;50.764;4.332;2023-05-13T11:43:58;34.10;54.50
25582;DHT22;13462;50.764;4.332;2023-05-13T11:46:23;34.30;54.40
25582;DHT22;13462;50.764;4.332;2023-05-13T11:48:50;34.70;56.90
25582;DHT22;13462;50.764;4.332;2023-05-13T11:51:18;34.30;55.60
25582;DHT22;13462;50.764;4.332;2023-05-13T11:53:44;33.40;56.80
25582;DHT22;13462;50.764;4.332;2023-05-13T11:56:10;33.20;57.30
25582;DHT22;13462;50.764;4.332;2023-05-13T11:58:37;33.00;60.00
25582;DHT22;13462;50.764;4.332;2023-05-13T12:01:02;32.60;55.80
25582;DHT22;13462;50.764;4.332;2023-05-13T12:03:28;32.60;58.30
25582;DHT22;13462;50.764;4.332;2023-05-13T12:06:02;32.10;55.50
25582;DHT22;13462;50.764;4.332;2023-05-13T12:08:28;30.80;57.60
25582;DHT22;13462;50.764;4.332;2023-05-13T12:10:54;29.30;61.50
25582;DHT22;13462;50.764;4.332;2023-05-13T12:13:19;28.80;65.60
25582;DHT22;13462;50.764;4.332;2023-05-13T12:15:46;29.20;67.40
25582;DHT22;13462;50.764;4.332;2023-05-13T12:18:11;29.00;65.40
25582;DHT22;13462;50.764;4.332;2023-05-13T12:20:37;28.40;61.20
25582;DHT22;13462;50.764;4.332;2023-05-13T12:23:02;28.80;66.10
25582;DHT22;13462;50.764;4.332;2023-05-13T12:28:13;30.10;60.90
25582;DHT22;13462;50.764;4.332;2023-05-13T12:30:58;30.50;61.40
25582;DHT22;13462;50.764;4.332;2023-05-13T12:33:28;30.80;59.90
25582;DHT22;13462;50.764;4.332;2023-05-13T12:36:13;30.30;59.10
25582;DHT22;13462;50.764;4.332;2023-05-13T12:38:39;29.10;57.50
25582;DHT22;13462;50.764;4.332;2023-05-13T12:41:11;27.50;59.20
25582;DHT22;13462;50.764;4.332;2023-05-13T12:43:39;27.30;59.90
25582;DHT22;13462;50.764;4.332;2023-05-13T12:46:05;27.10;64.20
25582;DHT22;13462;50.764;4.332;2023-05-13T12:48:31;27.30;63.80
25582;DHT22;13462;50.764;4.332;2023-05-13T12:50:56;28.00;63.60
25582;DHT22;13462;50.764;4.332;2023-05-13T12:53:22;29.30;63.30
25582;DHT22;13462;50.764;4.332;2023-05-13T12:55:47;29.80;57.80
25582;DHT22;13462;50.764;4.332;2023-05-13T12:58:13;29.00;59.40
25582;DHT22;13462;50.764;4.332;2023-05-13T13:00:38;28.30;63.40
25582;DHT22;13462;50.764;4.332;2023-05-13T13:03:04;27.70;67.20
25582;DHT22;13462;50.764;4.332;2023-05-13T13:05:30;27.10;69.20
25582;DHT22;13462;50.764;4.332;2023-05-13T13:07:55;26.70;71.10
25582;DHT22;13462;50.764;4.332;2023-05-13T13:10:21;26.70;76.60
25582;DHT22;13462;50.764;4.332;2023-05-13T13:12:47;27.30;73.90
25582;DHT22;13462;50.764;4.332;2023-05-13T13:15:13;27.00;70.20
25582;DHT22;13462;50.764;4.332;2023-05-13T13:17:39;26.90;76.90
25582;DHT22;13462;50.764;4.332;2023-05-13T13:20:04;27.30;76.30
25582;DHT22;13462;50.764;4.332;2023-05-13T13:22:31;27.30;73.30
25582;DHT22;13462;50.764;4.332;2023-05-13T13:24:57;27.20;74.90
25582;DHT22;13462;50.764;4.332;2023-05-13T13:27:22;27.10;67.80
25582;DHT22;13462;50.764;4.332;2023-05-13T13:29:48;27.30;64.10
25582;DHT22;13462;50.764;4.332;2023-05-13T13:32:13;27.20;63.90
25582;DHT22;13462;50.764;4.332;2023-05-13T13:34:39;26.50;58.90
25582;DHT22;13462;50.764;4.332;2023-05-13T13:37:04;26.30;63.30
25582;DHT22;13462;50.764;4.332;2023-05-13T13:39:30;26.50;72.90
25582;DHT22;13462;50.764;4.332;2023-05-13T13:41:56;26.80;75.40
25582;DHT22;13462;50.764;4.332;2023-05-13T13:44:21;27.30;74.90
25582;DHT22;13462;50.764;4.332;2023-05-13T13:46:47;27.80;76.70
25582;DHT22;13462;50.764;4.332;2023-05-13T13:49:12;28.10;77.60
25582;DHT22;13462;50.764;4.332;2023-05-13T13:51:38;28.50;72.20
25582;DHT22;13462;50.764;4.332;2023-05-13T13:54:04;28.50;74.40
25582;DHT22;13462;50.764;4.332;2023-05-13T13:56:29;28.40;73.30
25582;DHT22;13462;50.764;4.332;2023-05-13T13:58:55;27.90;73.30
25582;DHT22;13462;50.764;4.332;2023-05-13T14:01:20;27.50;75.10
25582;DHT22;13462;50.764;4.332;2023-05-13T14:03:51;27.10;75.80
25582;DHT22;13462;50.764;4.332;2023-05-13T14:06:16;26.50;78.60
25582;DHT22;13462;50.764;4.332;2023-05-13T14:08:42;26.50;80.60
25582;DHT22;13462;50.764;4.332;2023-05-13T14:11:07;26.50;82.20
25582;DHT22;13462;50.764;4.332;2023-05-13T14:13:33;26.30;80.40
25582;DHT22;13462;50.764;4.332;2023-05-13T14:15:58;25.90;81.90
25582;DHT22;13462;50.764;4.332;2023-05-13T14:18:24;25.50;81.20
25582;DHT22;13462;50.764;4.332;2023-05-13T14:20:49;25.20;84.30
25582;DHT22;13462;50.764;4.332;2023-05-13T14:23:16;25.40;85.50
25582;DHT22;13462;50.764;4.332;2023-05-13T14:25:41;25.70;85.80
25582;DHT22;13462;50.764;4.332;2023-05-13T14:28:07;25.60;79.40
25582;DHT22;13462;50.764;4.332;2023-05-13T14:58:05;24.40;89.90
25582;DHT22;13462;50.764;4.332;2023-05-13T15:00:34;23.20;94.40
25582;DHT22;13462;50.764;4.332;2023-05-13T15:03:02;23.10;94.80
25582;DHT22;13462;50.764;4.332;2023-05-13T15:05:27;23.20;93.60
25582;DHT22;13462;50.764;4.332;2023-05-13T15:07:53;23.50;93.40
25582;DHT22;13462;50.764;4.332;2023-05-13T15:10:19;23.80;92.90
25582;DHT22;13462;50.764;4.332;2023-05-13T15:12:44;24.20;93.70
25582;DHT22;13462;50.764;4.332;2023-05-13T15:15:10;24.60;93.20
25582;DHT22;13462;50.764;4.332;2023-05-13T15:17:36;24.90;93.40
25582;DHT22;13462;50.764;4.332;2023-05-13T15:20:02;25.20;92.70
25582;DHT22;13462;50.764;4.332;2023-05-13T15:22:28;25.50;92.10
25582;DHT22;13462;50.764;4.332;2023-05-13T15:24:53;25.80;92.30
25582;DHT22;13462;50.764;4.332;2023-05-13T15:27:19;25.70;91.40
25582;DHT22;13462;50.764;4.332;2023-05-13T15:29:45;25.70;91.20
25582;DHT22;13462;50.764;4.332;2023-05-13T15:32:10;25.30;91.50
25582;DHT22;13462;50.764;4.332;2023-05-13T15:34:36;25.10;92.50
25582;DHT22;13462;50.764;4.332;2023-05-13T15:37:02;25.10;92.80
25582;DHT22;13462;50.764;4.332;2023-05-13T15:39:27;25.20;92.00
25582;DHT22;13462;50.764;4.332;2023-05-13T15:41:53;25.20;92.60
25582;DHT22;13462;50.764;4.332;2023-05-13T15:44:19;25.30;93.20
25582;DHT22;13462;50.764;4.332;2023-05-13T15:46:46;25.30;92.70
25582;DHT22;13462;50.764;4.332;2023-05-13T15:49:11;25.10;92.10
25582;DHT22;13462;50.764;4.332;2023-05-13T15:51:38;24.80;91.60
25582;DHT22;13462;50.764;4.332;2023-05-13T15:54:04;24.40;91.40
25582;DHT22;13462;50.764;4.332;2023-05-13T15:56:29;24.00;91.20
25582;DHT22;13462;50.764;4.332;2023-05-13T15:58:55;23.40;91.60
25582;DHT22;13462;50.764;4.332;2023-05-13T16:01:20;23.00;92.60
25582;DHT22;13462;50.764;4.332;2023-05-13T16:03:46;22.80;92.10
25582;DHT22;13462;50.764;4.332;2023-05-13T16:06:12;22.90;92.10
25582;DHT22;13462;50.764;4.332;2023-05-13T16:08:37;23.00;90.00
25582;DHT22;13462;50.764;4.332;2023-05-13T16:11:03;23.10;87.30